Time;durP1;ratioP1;P1;durP2;ratioP2;P2;SDS_P1;SDS_P2;PMS_P1;PMS_P2;Temp;Humidity;BMP_temperature;BMP_pressure;BME280_temperature;BME280_humidity;BME280_pressure;Samples;Min_cycle;Max_cycle;Signal;HPM_P1;HPM_P2
2022/04/06 00:00:12;;;;;;;;;2.00;1.00;;;;;11.06;58.38;100797.34;5068652;27;45456;-73
2022/04/06 00:02:39;;;;;;;;;1.25;1.00;;;;;11.17;57.60;100814.34;5064677;28;45441;-73
2022/04/06 00:05:09;;;;;;;;;1.25;1.00;;;;;10.85;57.96;100760.75;5065853;28;46021;-74
2022/04/06 00:07:35;;;;;;;;;3.00;2.00;;;;;11.08;57.39;100795.63;5065141;27;45570;-74
2022/04/06 00:10:00;;;;;;;;;3.00;2.00;;;;;11.13;57.18;100808.09;5073976;28;45588;-74
2022/04/06 00:12:26;;;;;;;;;3.25;3.25;;;;;11.01;58.19;100786.69;5065098;27;45371;-73
2022/04/06 00:14:51;;;;;;;;;3.50;3.00;;;;;10.95;58.26;100778.56;5064633;28;45430;-74
2022/04/06 00:17:17;;;;;;;;;2.00;2.00;;;;;11.00;57.52;100784.88;5066148;27;45361;-73
2022/04/06 00:19:43;;;;;;;;;2.25;1.00;;;;;10.64;58.23;100717.09;5068673;28;45579;-74
2022/04/06 00:22:08;;;;;;;;;1.00;1.00;;;;;10.87;57.53;100759.03;5065856;28;46026;-74
2022/04/06 00:24:34;;;;;;;;;3.00;2.00;;;;;11.09;57.79;100793.03;5064915;28;45432;-74
2022/04/06 00:26:59;;;;;;;;;1.00;1.00;;;;;11.02;57.13;100782.28;5070611;28;45428;-73
2022/04/06 00:29:24;;;;;;;;;5.25;2.00;;;;;10.94;57.21;100776.81;5062652;28;45408;-74
2022/04/06 00:31:50;;;;;;;;;1.50;1.00;;;;;11.06;57.95;100787.66;5075736;28;45537;-73
2022/04/06 00:34:15;;;;;;;;;1.00;1.00;;;;;10.99;57.04;100785.75;5074089;28;48312;-74
2022/04/06 00:36:41;;;;;;;;;2.00;0.00;;;;;10.97;57.76;100785.69;5073838;28;45871;-74
2022/04/06 00:39:06;;;;;;;;;3.75;2.00;;;;;10.69;57.53;100733.03;5062531;27;45219;-74
2022/04/06 00:41:32;;;;;;;;;2.50;1.00;;;;;10.74;58.41;100756.09;5070888;28;45486;-74
2022/04/06 00:44:14;;;;;;;;;2.75;1.75;;;;;10.80;57.86;100772.94;5077162;27;48063;-74
2022/04/06 00:46:40;;;;;;;;;2.00;2.00;;;;;10.62;58.20;100750.53;5068419;28;45980;-74
2022/04/06 00:49:11;;;;;;;;;4.00;2.00;;;;;10.66;58.62;100776.16;5074026;28;45299;-74
2022/04/06 00:51:38;;;;;;;;;1.75;1.75;;;;;10.60;58.94;100767.22;5069327;28;46267;-74
2022/04/06 00:54:04;;;;;;;;;1.25;1.00;;;;;10.53;59.77;100768.81;5061011;28;46157;-73
2022/04/06 00:56:30;;;;;;;;;1.00;1.00;;;;;10.43;59.54;100764.16;5070138;28;45382;-73
2022/04/06 00:58:56;;;;;;;;;1.75;1.25;;;;;10.09;58.89;100705.19;5060430;28;46136;-73
2022/04/06 01:01:21;;;;;;;;;0.50;0.50;;;;;10.23;59.74;100745.16;5065198;28;46211;-73
2022/04/06 01:03:46;;;;;;;;;3.00;1.25;;;;;10.21;60.45;100755.66;5058406;28;45380;-73
2022/04/06 01:06:12;;;;;;;;;4.75;2.25;;;;;10.16;60.26;100745.84;5069084;27;45284;-74
2022/04/06 01:08:37;;;;;;;;;2.00;2.00;;;;;10.18;60.64;100754.69;5058835;28;45247;-74
2022/04/06 01:11:02;;;;;;;;;0.75;0.75;;;;;9.99;61.15;100725.16;5069231;27;45335;-74
2022/04/06 01:13:29;;;;;;;;;6.00;3.00;;;;;9.96;61.19;100724.22;5058375;28;45483;-74
2022/04/06 01:15:55;;;;;;;;;1.00;1.00;;;;;9.83;60.64;100716.00;5070033;28;45297;-74
2022/04/06 01:18:20;;;;;;;;;3.50;2.00;;;;;9.98;61.05;100748.91;5058375;28;45237;-73
2022/04/06 01:20:45;;;;;;;;;2.00;1.00;;;;;9.93;60.99;100738.22;5071032;28;45914;-73
2022/04/06 01:23:11;;;;;;;;;1.00;1.00;;;;;9.60;61.65;100696.00;5058584;28;46164;-73
2022/04/06 01:25:38;;;;;;;;;3.50;2.50;;;;;9.73;61.77;100731.53;5069059;28;45308;-73
2022/04/06 01:28:04;;;;;;;;;2.00;2.00;;;;;9.79;61.09;100739.63;5058091;27;45384;-73
2022/04/06 01:30:29;;;;;;;;;3.00;1.50;;;;;9.75;61.96;100738.66;5063701;28;45362;-72
2022/04/06 01:32:58;;;;;;;;;1.25;1.25;;;;;9.47;62.16;100704.47;5076475;28;46171;-72
2022/04/06 01:35:24;;;;;;;;;2.00;2.00;;;;;9.64;62.02;100733.06;5065668;28;45490;-72
2022/04/06 01:37:50;;;;;;;;;1.00;1.00;;;;;9.42;62.20;100714.88;5057975;28;45284;-73
2022/04/06 01:40:15;;;;;;;;;1.75;0.75;;;;;9.48;62.45;100730.88;5066718;28;45442;-73
2022/04/06 01:42:41;;;;;;;;;2.75;1.00;;;;;9.40;62.06;100720.09;5085328;27;47210;-72
2022/04/06 01:45:07;;;;;;;;;1.25;1.25;;;;;9.30;62.26;100710.16;5065242;28;45332;-72
2022/04/06 01:47:32;;;;;;;;;5.25;1.00;;;;;9.31;61.74;100716.31;5067722;27;45350;-72
2022/04/06 01:52:42;;;;;;;;;2.00;1.50;;;;;9.27;62.28;100723.25;5065065;28;45505;-72
2022/04/06 01:55:11;;;;;;;;;1.75;1.75;;;;;9.29;62.56;100734.72;5062223;28;45414;-72
2022/04/06 01:57:37;;;;;;;;;4.50;2.00;;;;;9.21;63.69;100722.19;5067186;28;45294;-72
2022/04/06 02:00:09;;;;;;;;;4.00;1.75;;;;;9.09;62.67;100717.44;5058711;28;45274;-73
2022/04/06 02:02:35;;;;;;;;;3.00;3.00;;;;;9.03;62.65;100699.72;5062961;28;45591;-73
2022/04/06 02:05:01;;;;;;;;;1.00;1.00;;;;;9.14;62.99;100729.03;5066350;28;45239;-72
2022/04/06 02:07:27;;;;;;;;;3.00;1.00;;;;;9.11;62.81;100727.19;5066657;27;45405;-73
2022/04/06 02:09:53;;;;;;;;;2.00;2.00;;;;;9.00;62.54;100712.81;5065460;28;46015;-73
2022/04/06 02:12:21;;;;;;;;;3.00;1.00;;;;;9.06;63.49;100725.28;5067157;27;46158;-72
2022/04/06 02:14:46;;;;;;;;;1.00;1.00;;;;;8.81;63.50;100684.13;5064345;27;45580;-73
2022/04/06 02:17:12;;;;;;;;;5.00;2.00;;;;;8.58;63.51;100657.97;5068381;27;45430;-72
2022/04/06 02:19:39;;;;;;;;;3.50;2.00;;;;;8.89;63.57;100709.84;5062839;28;46856;-72
2022/04/06 02:22:06;;;;;;;;;3.00;0.00;;;;;8.94;63.78;100721.44;5069440;27;45311;-73
2022/04/06 02:24:32;;;;;;;;;1.75;0.25;;;;;8.89;63.36;100704.56;5063184;28;45294;-72
2022/04/06 02:26:58;;;;;;;;;1.75;1.00;;;;;8.96;62.98;100711.84;5069805;28;45243;-74
2022/04/06 02:29:24;;;;;;;;;2.50;1.00;;;;;9.01;63.17;100708.44;5076685;28;45454;-74
2022/04/06 02:31:49;;;;;;;;;1.50;1.50;;;;;8.83;64.06;100672.78;5071914;27;45416;-74
2022/04/06 02:34:15;;;;;;;;;1.00;1.00;;;;;8.96;62.85;100685.47;5065143;28;45234;-74
2022/04/06 02:36:40;;;;;;;;;0.25;0.00;;;;;9.05;63.01;100683.94;5071970;27;45260;-73
2022/04/06 02:39:05;;;;;;;;;2.00;2.00;;;;;8.90;63.07;100652.75;5064702;27;45332;-74
2022/04/06 02:41:31;;;;;;;;;2.00;1.00;;;;;9.18;62.84;100696.59;5071914;27;45976;-74
2022/04/06 02:43:56;;;;;;;;;1.75;1.75;;;;;9.20;62.79;100689.66;5064965;27;45347;-74
2022/04/06 02:46:22;;;;;;;;;2.00;0.50;;;;;9.18;62.96;100684.31;5071899;27;45326;-74
2022/04/06 02:48:47;;;;;;;;;0.00;0.00;;;;;9.00;63.10;100646.91;5064978;27;45396;-74
2022/04/06 02:51:12;;;;;;;;;1.50;1.00;;;;;9.31;62.75;100689.94;5069759;28;46449;-75
2022/04/06 02:53:38;;;;;;;;;1.00;1.00;;;;;9.21;62.52;100661.53;5063529;27;45323;-74
2022/04/06 02:56:04;;;;;;;;;4.00;0.00;;;;;9.29;62.71;100675.81;5070652;27;44771;-74
2022/04/06 02:58:29;;;;;;;;;2.50;0.75;;;;;9.30;63.04;100664.41;5063792;27;46502;-74
2022/04/06 03:00:56;;;;;;;;;1.00;1.00;;;;;9.32;62.50;100662.72;5065502;28;45660;-74
2022/04/06 03:03:22;;;;;;;;;0.25;0.25;;;;;9.26;62.27;100658.16;5063612;27;45150;-73
2022/04/06 03:05:48;;;;;;;;;1.00;0.00;;;;;9.26;62.14;100641.44;5071095;28;45519;-74
2022/04/06 03:08:13;;;;;;;;;0.00;0.00;;;;;9.48;62.87;100674.56;5060013;28;45324;-73
2022/04/06 03:10:38;;;;;;;;;1.75;1.00;;;;;9.37;62.20;100646.16;5070982;28;46030;-74
2022/04/06 03:13:04;;;;;;;;;0.00;0.00;;;;;9.30;61.97;100627.47;5061539;28;45273;-73
2022/04/06 03:15:30;;;;;;;;;3.00;0.00;;;;;9.19;62.50;100607.00;5072573;27;45571;-74
2022/04/06 03:17:55;;;;;;;;;1.00;0.75;;;;;9.49;62.34;100642.06;5076730;27;46170;-73
2022/04/06 03:20:21;;;;;;;;;0.75;0.75;;;;;9.52;61.97;100644.75;5068776;28;45477;-73
2022/04/06 03:22:46;;;;;;;;;0.50;0.00;;;;;9.56;62.07;100641.38;5063829;28;45350;-73
2022/04/06 03:25:12;;;;;;;;;1.75;0.00;;;;;9.40;62.06;100609.28;5074125;27;45325;-73
2022/04/06 03:27:37;;;;;;;;;0.50;0.50;;;;;9.50;62.21;100618.34;5075419;28;45869;-73
2022/04/06 03:30:05;;;;;;;;;2.75;0.00;;;;;9.62;62.29;100639.78;5065701;28;45275;-73
2022/04/06 03:32:31;;;;;;;;;0.00;0.00;;;;;9.50;61.86;100609.56;5072414;28;45244;-73
2022/04/06 03:34:57;;;;;;;;;0.00;0.00;;;;;9.48;62.22;100611.25;5064799;28;45107;-73
2022/04/06 03:37:22;;;;;;;;;2.75;0.50;;;;;9.45;62.29;100601.50;5075002;27;45427;-73
2022/04/06 03:39:48;;;;;;;;;1.50;0.00;;;;;9.60;62.10;100622.09;5073474;28;46612;-73
2022/04/06 03:42:13;;;;;;;;;0.00;0.00;;;;;9.60;62.02;100619.47;5069806;28;45248;-73
2022/04/06 03:44:38;;;;;;;;;0.00;0.00;;;;;9.62;62.35;100620.41;5062305;28;45398;-73
2022/04/06 03:47:04;;;;;;;;;0.00;0.00;;;;;9.68;62.13;100628.47;5072485;27;45497;-73
2022/04/06 03:49:30;;;;;;;;;1.50;0.00;;;;;9.58;62.35;100613.28;5063338;28;46104;-73
2022/04/06 03:51:55;;;;;;;;;1.00;1.00;;;;;9.70;62.27;100625.88;5070016;28;45317;-74
2022/04/06 03:54:20;;;;;;;;;3.00;2.75;;;;;9.53;62.46;100599.06;5064328;28;45178;-73
2022/04/06 03:56:46;;;;;;;;;1.00;0.00;;;;;9.44;61.83;100580.34;5070624;27;45412;-73
2022/04/06 03:59:11;;;;;;;;;0.25;0.25;;;;;9.53;61.50;100593.81;5062319;28;47104;-73
2022/04/06 04:01:36;;;;;;;;;0.00;0.00;;;;;9.16;61.90;100526.94;5061821;28;45323;-73
2022/04/06 04:04:04;;;;;;;;;1.00;0.00;;;;;9.57;62.65;100604.44;5061120;28;45469;-73
2022/04/06 04:06:32;;;;;;;;;1.50;0.00;;;;;9.64;62.26;100608.16;5067828;27;45410;-73
2022/04/06 04:08:58;;;;;;;;;0.50;0.50;;;;;9.67;62.08;100618.78;5060163;28;46658;-73
2022/04/06 04:11:23;;;;;;;;;1.75;0.50;;;;;9.63;62.24;100606.34;5068803;27;45217;-73
2022/04/06 04:13:49;;;;;;;;;1.00;1.00;;;;;9.69;61.72;100613.53;5059402;28;45304;-73
2022/04/06 04:16:14;;;;;;;;;0.00;0.00;;;;;8.99;61.79;100497.50;5072027;28;46417;-73
2022/04/06 04:18:40;;;;;;;;;1.00;0.00;;;;;9.67;62.49;100613.50;5078426;27;45946;-73
2022/04/06 04:23:50;;;;;;;;;0.00;0.00;;;;;9.41;62.25;100568.00;5059470;28;45254;-73
2022/04/06 04:26:15;;;;;;;;;0.00;0.00;;;;;9.63;61.74;100612.53;5064786;27;45473;-73
2022/04/06 04:28:41;;;;;;;;;0.50;0.50;;;;;9.64;62.44;100611.69;5058887;28;46296;-74
2022/04/06 04:31:06;;;;;;;;;0.00;0.00;;;;;9.67;61.88;100612.63;5067660;27;45677;-73
2022/04/06 04:33:31;;;;;;;;;1.25;1.00;;;;;9.67;61.62;100612.63;5078542;27;45828;-73
2022/04/06 04:35:57;;;;;;;;;2.00;0.00;;;;;9.67;62.04;100605.59;5069608;27;45347;-73
2022/04/06 04:38:23;;;;;;;;;1.75;1.00;;;;;9.68;61.92;100599.44;5066119;28;46899;-73
2022/04/06 04:40:48;;;;;;;;;0.00;0.00;;;;;9.57;62.01;100574.53;5063390;28;45725;-73
2022/04/06 04:43:13;;;;;;;;;0.00;0.00;;;;;9.37;62.29;100543.28;5068017;27;45410;-74
2022/04/06 04:45:39;;;;;;;;;2.00;0.75;;;;;9.46;61.74;100554.91;5064767;28;45428;-73
2022/04/06 04:48:04;;;;;;;;;0.00;0.00;;;;;9.65;61.73;100586.19;5067122;28;45236;-73
2022/04/06 04:50:30;;;;;;;;;0.00;0.00;;;;;9.67;61.73;100581.84;5063942;28;45320;-73
2022/04/06 04:52:55;;;;;;;;;0.25;0.25;;;;;9.48;61.88;100537.38;5066574;28;45550;-74
2022/04/06 04:55:20;;;;;;;;;2.00;0.00;;;;;9.70;61.75;100566.06;5062620;28;45533;-74
2022/04/06 04:57:46;;;;;;;;;0.00;0.00;;;;;9.52;61.55;100526.94;5067848;28;46125;-73
2022/04/06 05:00:12;;;;;;;;;2.00;1.00;;;;;9.79;61.43;100568.91;5064098;28;45310;-73
2022/04/06 05:02:37;;;;;;;;;0.50;0.25;;;;;9.67;61.31;100546.63;5059059;28;45306;-73
2022/04/06 05:05:08;;;;;;;;;0.00;0.00;;;;;9.64;61.38;100547.47;5066547;28;45409;-73
2022/04/06 05:07:37;;;;;;;;;3.00;0.75;;;;;9.56;61.02;100523.50;5078894;27;48237;-73
2022/04/06 05:10:07;;;;;;;;;1.00;1.00;;;;;9.70;61.19;100544.06;5063905;28;45320;-74
2022/04/06 05:12:33;;;;;;;;;0.50;0.00;;;;;9.69;60.50;100540.56;5062247;28;45359;-75
2022/04/06 05:15:01;;;;;;;;;2.50;0.25;;;;;9.73;60.90;100547.66;5073867;28;45589;-75
2022/04/06 05:17:28;;;;;;;;;3.00;1.00;;;;;9.89;60.93;100569.13;5064348;27;46128;-74
2022/04/06 05:19:53;;;;;;;;;0.75;0.75;;;;;9.95;61.31;100579.84;5071046;28;45410;-74
2022/04/06 05:22:19;;;;;;;;;2.00;1.00;;;;;9.91;61.23;100565.66;5063799;28;45287;-74
2022/04/06 05:24:44;;;;;;;;;2.00;1.00;;;;;9.84;61.13;100553.19;5063717;28;45572;-75
2022/04/06 05:27:10;;;;;;;;;0.50;0.50;;;;;9.66;61.32;100521.97;5070256;28;45346;-75
2022/04/06 05:29:35;;;;;;;;;1.00;1.00;;;;;9.93;60.57;100566.59;5077954;27;45311;-75
2022/04/06 05:32:00;;;;;;;;;1.00;1.00;;;;;10.00;60.95;100584.38;5069684;27;45457;-75
2022/04/06 05:34:26;;;;;;;;;1.00;1.00;;;;;9.69;61.08;100526.44;5060752;27;45233;-76
2022/04/06 05:36:51;;;;;;;;;4.75;1.00;;;;;9.67;60.71;100520.25;5073377;28;46311;-76
2022/04/06 05:39:17;;;;;;;;;2.00;2.00;;;;;9.86;60.95;100560.31;5063502;27;45248;-75
2022/04/06 05:41:42;;;;;;;;;1.00;1.00;;;;;9.97;61.39;100576.41;5075213;28;45343;-75
2022/04/06 05:44:08;;;;;;;;;1.00;1.00;;;;;9.91;60.95;100565.66;5071025;27;45514;-75
2022/04/06 05:46:33;;;;;;;;;1.75;1.50;;;;;9.84;60.70;100547.91;5074927;28;46209;-77
2022/04/06 05:48:59;;;;;;;;;1.50;1.00;;;;;10.00;61.70;100575.59;5065343;27;45306;-75
2022/04/06 05:51:24;;;;;;;;;2.25;2.00;;;;;9.85;61.10;100553.22;5070825;27;45268;-75
2022/04/06 05:53:50;;;;;;;;;4.75;1.00;;;;;9.99;61.68;100573.78;5062693;28;45407;-76
2022/04/06 05:56:15;;;;;;;;;2.00;2.00;;;;;9.97;61.63;100567.56;5072250;28;46057;-75
2022/04/06 05:58:42;;;;;;;;;4.25;2.00;;;;;9.46;61.31;100484.56;5062576;27;45314;-73
2022/04/06 06:01:08;;;;;;;;;2.25;2.00;;;;;9.79;61.88;100549.56;5082919;27;45285;-74
2022/04/06 06:03:34;;;;;;;;;3.00;1.00;;;;;9.83;61.66;100565.50;5060865;28;47007;-74
2022/04/06 06:06:00;;;;;;;;;3.00;2.00;;;;;9.79;62.07;100570.69;5072080;28;45907;-74
2022/04/06 06:08:26;;;;;;;;;4.00;3.00;;;;;9.70;61.96;100555.50;5060690;28;45208;-75
2022/04/06 06:10:51;;;;;;;;;4.00;1.50;;;;;9.61;61.94;100543.00;5068574;28;45327;-74
2022/04/06 06:13:16;;;;;;;;;3.75;2.50;;;;;9.74;62.58;100562.63;5060738;28;45280;-76
2022/04/06 06:15:42;;;;;;;;;3.25;3.00;;;;;9.81;62.06;100569.84;5072065;28;46149;-76
2022/04/06 06:18:08;;;;;;;;;1.50;1.50;;;;;9.74;62.73;100562.63;5059306;28;45354;-75
2022/04/06 06:20:34;;;;;;;;;3.25;2.00;;;;;9.65;61.61;100541.31;5070523;28;45363;-75
2022/04/06 06:22:59;;;;;;;;;3.75;3.50;;;;;9.68;62.29;100545.78;5060855;28;46041;-76
2022/04/06 06:25:25;;;;;;;;;1.75;1.75;;;;;9.80;62.12;100568.09;5066689;28;45465;-75
2022/04/06 06:27:50;;;;;;;;;2.25;2.25;;;;;9.68;62.40;100540.50;5073399;28;45241;-75
2022/04/06 06:30:15;;;;;;;;;3.75;2.00;;;;;9.38;62.40;100479.13;5068863;28;45593;-75
2022/04/06 06:32:41;;;;;;;;;6.00;3.00;;;;;9.49;62.13;100505.75;5072312;28;46070;-74
2022/04/06 06:35:11;;;;;;;;;3.50;2.75;;;;;9.22;62.30;100458.50;5066346;28;45426;-74
2022/04/06 06:37:43;;;;;;;;;0.00;0.00;;;;;9.72;62.47;100531.78;5072686;27;45414;-75
2022/04/06 06:40:09;;;;;;;;;2.50;2.50;;;;;9.72;61.72;100527.41;5073162;28;45303;-75
2022/04/06 06:42:35;;;;;;;;;2.25;2.25;;;;;9.83;62.80;100549.69;5070005;27;45232;-75
2022/04/06 06:45:00;;;;;;;;;1.00;1.00;;;;;9.76;63.20;100525.72;5065309;28;45310;-75
2022/04/06 06:47:25;;;;;;;;;1.75;1.75;;;;;9.78;62.09;100529.31;5068936;27;45328;-75
2022/04/06 06:49:52;;;;;;;;;2.00;1.00;;;;;9.91;62.55;100548.94;5064120;28;45462;-76
2022/04/06 06:52:17;;;;;;;;;2.75;2.00;;;;;10.02;62.29;100560.63;5073630;28;45611;-75
2022/04/06 06:54:43;;;;;;;;;1.00;1.00;;;;;9.87;62.08;100518.94;5062607;28;45249;-75
2022/04/06 06:57:10;;;;;;;;;4.00;4.00;;;;;9.95;62.27;100516.50;5070902;27;45343;-76
2022/04/06 06:59:35;;;;;;;;;2.75;1.25;;;;;10.09;61.83;100542.34;5065353;28;45364;-75
2022/04/06 07:02:01;;;;;;;;;4.00;3.00;;;;;10.21;61.79;100561.94;5065517;27;45228;-75
2022/04/06 07:04:26;;;;;;;;;2.00;2.00;;;;;10.24;62.17;100554.97;5062050;28;45451;-75
2022/04/06 07:06:51;;;;;;;;;1.25;1.00;;;;;10.33;61.55;100548.13;5068575;28;45206;-73
2022/04/06 07:09:17;;;;;;;;;3.75;3.00;;;;;10.32;61.44;100541.97;5071934;28;45410;-73
2022/04/06 07:11:43;;;;;;;;;2.25;1.25;;;;;10.22;61.69;100506.53;5062020;28;45399;-74
2022/04/06 07:14:08;;;;;;;;;4.00;2.00;;;;;10.49;60.91;100547.59;5074927;28;47004;-73
2022/04/06 07:16:33;;;;;;;;;1.75;1.75;;;;;10.53;61.14;100550.34;5068648;27;45688;-74
2022/04/06 07:18:59;;;;;;;;;2.00;2.00;;;;;10.51;60.52;100527.41;5060923;28;45467;-74
2022/04/06 07:21:24;;;;;;;;;2.00;1.00;;;;;10.38;60.85;100493.66;5068493;28;45295;-75
2022/04/06 07:23:50;;;;;;;;;4.00;2.00;;;;;10.70;60.35;100547.16;5060083;28;45205;-74
2022/04/06 07:26:16;;;;;;;;;3.50;2.00;;;;;10.75;60.87;100541.09;5074875;28;45374;-77
2022/04/06 07:28:44;;;;;;;;;2.00;2.00;;;;;10.66;60.68;100526.78;5067054;27;45333;-76
2022/04/06 07:31:10;;;;;;;;;2.00;2.00;;;;;10.63;60.39;100506.47;5071300;27;45453;-75
2022/04/06 07:33:36;;;;;;;;;2.50;2.00;;;;;10.81;60.24;100520.91;5067659;27;45367;-75
2022/04/06 07:36:03;;;;;;;;;3.00;2.25;;;;;10.82;60.99;100514.78;5069953;28;45437;-75
2022/04/06 07:38:29;;;;;;;;;3.00;1.50;;;;;10.97;59.73;100534.44;5066141;28;45283;-75
2022/04/06 07:40:54;;;;;;;;;2.00;2.00;;;;;10.70;60.15;100481.97;5065975;28;47060;-75
2022/04/06 07:43:20;;;;;;;;;1.00;1.00;;;;;11.05;59.43;100533.69;5079041;27;45936;-74
2022/04/06 07:45:45;;;;;;;;;4.00;1.25;;;;;11.10;60.20;100530.28;5063969;28;45441;-74
2022/04/06 07:48:11;;;;;;;;;1.00;1.00;;;;;11.16;58.93;100530.38;5068158;27;45551;-75
2022/04/06 07:50:36;;;;;;;;;2.00;2.00;;;;;10.78;59.34;100453.00;5065828;28;45394;-75
2022/04/06 07:53:02;;;;;;;;;4.00;1.00;;;;;11.29;59.29;100527.97;5066269;28;45446;-76
2022/04/06 07:55:29;;;;;;;;;2.00;2.00;;;;;11.08;59.15;100475.56;5063688;28;45453;-76
2022/04/06 07:57:54;;;;;;;;;1.50;1.50;;;;;11.39;58.53;100528.13;5066493;28;45392;-75
2022/04/06 08:00:20;;;;;;;;;1.50;1.25;;;;;11.37;58.94;100510.44;5089719;27;47284;-75
2022/04/06 08:02:47;;;;;;;;;2.00;2.00;;;;;11.41;59.83;100501.69;5067815;27;45508;-75
2022/04/06 08:05:13;;;;;;;;;3.00;1.00;;;;;11.57;58.99;100516.06;5061163;28;45733;-75
2022/04/06 08:07:43;;;;;;;;;3.75;1.00;;;;;11.46;58.69;100489.44;5059573;28;45405;-75
2022/04/06 08:10:11;;;;;;;;;0.25;0.25;;;;;11.64;58.34;100513.50;5076741;28;45387;-75
2022/04/06 08:12:36;;;;;;;;;2.00;1.00;;;;;11.73;58.37;100519.81;5066095;28;46222;-76
2022/04/06 08:15:06;;;;;;;;;2.00;2.00;;;;;11.48;57.63;100461.19;5091163;27;45817;-78
2022/04/06 08:17:37;;;;;;;;;2.00;2.00;;;;;11.72;57.70;100478.34;5086257;27;45727;-77
2022/04/06 08:20:04;;;;;;;;;2.25;2.00;;;;;11.91;57.97;100504.25;5064423;27;45556;-77
2022/04/06 08:22:30;;;;;;;;;1.00;0.75;;;;;11.74;57.47;100458.97;5058382;28;45712;-76
2022/04/06 08:24:56;;;;;;;;;1.25;1.25;;;;;12.00;57.60;100499.06;5068909;28;46147;-77
2022/04/06 08:27:21;;;;;;;;;1.00;1.00;;;;;11.97;56.59;100487.53;5075748;27;45183;-77
2022/04/06 08:29:46;;;;;;;;;1.00;1.00;;;;;12.06;57.71;100498.25;5071601;27;45422;-76
2022/04/06 08:32:14;;;;;;;;;2.00;2.00;;;;;11.69;57.50;100423.56;5077908;27;46109;-75
2022/04/06 08:34:39;;;;;;;;;1.00;1.00;;;;;11.59;56.79;100401.38;5066235;28;45402;-76
2022/04/06 08:37:05;;;;;;;;;1.00;1.00;;;;;12.12;56.57;100484.19;5085540;27;45428;-75
2022/04/06 08:39:30;;;;;;;;;2.50;1.00;;;;;12.18;56.88;100492.22;5066886;28;45486;-75
2022/04/06 08:41:55;;;;;;;;;3.50;1.25;;;;;12.26;56.80;100486.16;5063247;28;45350;-78
2022/04/06 08:44:21;;;;;;;;;3.00;3.00;;;;;12.23;56.51;100478.16;5063678;28;45457;-76
2022/04/06 08:46:50;;;;;;;;;1.50;1.50;;;;;12.07;55.87;100441.75;5060118;28;45714;-77
2022/04/06 08:49:16;;;;;;;;;3.25;1.75;;;;;11.92;56.59;100410.66;5075549;28;46138;-77
2022/04/06 08:51:44;;;;;;;;;2.75;2.00;;;;;12.40;56.08;100494.25;5067277;27;45295;-76
2022/04/06 08:54:10;;;;;;;;;2.75;1.25;;;;;12.46;55.91;100482.84;5073868;28;45405;-76
2022/04/06 08:56:36;;;;;;;;;2.00;2.00;;;;;12.41;55.81;100482.81;5077778;27;45385;-77
2022/04/06 08:59:01;;;;;;;;;2.00;2.00;;;;;12.52;55.32;100483.81;5066273;28;46047;-77
2022/04/06 09:01:31;;;;;;;;;3.50;1.00;;;;;12.36;55.91;100450.06;5064266;28;46075;-77
2022/04/06 09:03:59;;;;;;;;;3.00;3.00;;;;;12.62;55.26;100487.44;5067704;28;45429;-77
2022/04/06 09:06:26;;;;;;;;;2.00;2.00;;;;;12.59;55.19;100465.31;5069805;28;45327;-78
2022/04/06 09:08:51;;;;;;;;;4.00;3.00;;;;;12.41;55.41;100435.09;5073698;28;45471;-76
2022/04/06 09:11:18;;;;;;;;;2.00;1.00;;;;;12.74;55.02;100484.94;5073797;27;45316;-77
2022/04/06 09:13:46;;;;;;;;;1.00;1.00;;;;;12.79;55.13;100481.44;5064980;28;45573;-76
2022/04/06 09:16:16;;;;;;;;;1.50;1.50;;;;;12.81;55.46;100480.59;5078886;27;45544;-75
2022/04/06 09:18:44;;;;;;;;;2.00;2.00;;;;;12.86;55.02;100478.88;5067399;28;45469;-76
2022/04/06 09:21:15;;;;;;;;;4.75;4.00;;;;;12.83;54.67;100465.59;5071442;28;47467;-75
2022/04/06 09:23:41;;;;;;;;;7.00;5.75;;;;;13.00;54.98;100476.34;5070687;28;45404;-75
2022/04/06 09:26:08;;;;;;;;;2.25;2.25;;;;;13.04;54.39;100478.16;5069834;28;45371;-76
2022/04/06 09:28:38;;;;;;;;;4.00;2.00;;;;;13.07;54.28;100480.81;5069772;28;45467;-77
2022/04/06 09:31:04;;;;;;;;;1.75;1.75;;;;;12.84;54.48;100430.22;5067226;28;45721;-75
2022/04/06 09:33:29;;;;;;;;;5.75;4.75;;;;;13.12;54.21;100476.44;5066270;28;45310;-75
2022/04/06 09:35:57;;;;;;;;;7.75;4.00;;;;;13.12;53.52;100470.25;5069403;27;45364;-76
2022/04/06 09:38:27;;;;;;;;;3.25;2.00;;;;;12.97;53.70;100441.84;5066419;28;45615;-75
2022/04/06 09:41:04;;;;;;;;;3.25;3.25;;;;;13.14;53.77;100473.81;5070360;28;46750;-76
2022/04/06 09:43:31;;;;;;;;;1.00;1.00;;;;;12.97;52.96;100458.63;5096287;27;45420;-76
2022/04/06 09:49:14;;;;;;;;;6.25;5.00;;;;;13.18;53.16;100471.19;5079325;28;45473;-76
2022/04/06 09:51:45;;;;;;;;;4.25;3.00;;;;;13.20;52.87;100481.84;5066638;28;45339;-76
2022/04/06 09:54:15;;;;;;;;;0.75;0.75;;;;;13.24;53.27;100477.44;5069164;28;45565;-75
2022/04/06 09:56:42;;;;;;;;;1.67;1.00;;;;;13.26;53.05;100471.28;5071931;28;45384;-75
2022/04/06 09:59:09;;;;;;;;;3.00;3.00;;;;;13.21;52.74;100459.72;5077393;28;46026;-76
2022/04/06 10:01:36;;;;;;;;;1.67;1.33;;;;;13.28;52.48;100476.63;5062731;28;47115;-75
2022/04/06 10:04:06;;;;;;;;;2.75;2.25;;;;;13.12;53.30;100441.94;5069203;28;45460;-75
2022/04/06 10:06:36;;;;;;;;;5.75;4.75;;;;;13.28;52.48;100479.28;5065987;27;45342;-75
2022/04/06 10:09:05;;;;;;;;;5.00;5.00;;;;;13.28;52.96;100463.34;5071090;28;45383;-77
2022/04/06 10:11:32;;;;;;;;;3.33;1.00;;;;;13.28;52.28;100461.59;5080962;27;47182;-75
2022/04/06 10:14:00;;;;;;;;;1.67;1.00;;;;;13.24;51.81;100441.16;5070117;28;44845;-75
2022/04/06 10:16:26;;;;;;;;;2.00;1.00;;;;;13.31;52.15;100453.66;5070683;27;45311;-75
2022/04/06 10:18:54;;;;;;;;;1.00;1.00;;;;;13.39;51.99;100459.03;5080369;27;45338;-76
2022/04/06 10:21:27;;;;;;;;;1.00;1.00;;;;;13.46;51.97;100457.28;5072204;27;45732;-75
2022/04/06 10:24:15;;;;;;;;;1.67;1.67;;;;;13.46;51.12;100455.50;5071025;28;45415;-75
2022/04/06 10:27:06;;;;;;;;;2.00;2.00;;;;;13.49;52.20;100447.56;5080953;28;45302;-75
2022/04/06 10:29:31;;;;;;;;;3.00;2.00;;;;;13.54;52.19;100439.63;5071296;28;46053;-75
2022/04/06 10:31:57;;;;;;;;;4.67;2.00;;;;;13.44;51.51;100406.81;5068166;28;46350;-75
2022/04/06 10:34:31;;;;;;;;;2.00;2.00;;;;;13.59;52.08;100436.13;5070220;28;45426;-79
2022/04/06 10:37:06;;;;;;;;;3.00;2.33;;;;;13.17;52.00;100352.66;5067041;28;45296;-75
2022/04/06 10:39:33;;;;;;;;;1.00;1.00;;;;;13.48;52.06;100398.00;5069281;28;45334;-76
2022/04/06 10:42:16;;;;;;;;;4.00;4.00;;;;;13.68;51.99;100426.44;5078409;28;47211;-76
2022/04/06 10:44:43;;;;;;;;;4.00;3.00;;;;;13.56;52.08;100408.69;5071004;27;45356;-76
2022/04/06 10:47:11;;;;;;;;;2.00;2.00;;;;;13.62;52.11;100422.00;5065858;28;45349;-79
2022/04/06 10:49:37;;;;;;;;;4.50;3.00;;;;;13.52;52.14;100414.84;5079685;27;45505;-76
2022/04/06 10:52:35;;;;;;;;;4.00;1.67;;;;;13.50;52.74;100412.19;5076967;27;46151;-75
2022/04/06 10:55:14;;;;;;;;;3.00;3.00;;;;;13.42;52.86;100398.84;5078769;28;45439;-76
2022/04/06 10:57:57;;;;;;;;;7.75;6.25;;;;;13.43;52.58;100402.38;5071066;27;45295;-76
2022/04/06 11:00:24;;;;;;;;;4.50;3.25;;;;;13.25;52.86;100383.66;5064654;28;46316;-74
2022/04/06 11:02:50;;;;;;;;;3.00;3.00;;;;;13.11;52.98;100355.28;5071790;28;45413;-75
2022/04/06 11:05:45;;;;;;;;;3.00;3.00;;;;;13.34;53.16;100387.28;5069623;27;45243;-75
2022/04/06 11:11:37;;;;;;;;;8.75;6.50;;;;;13.39;53.28;100382.91;5066528;27;45560;-74
2022/04/06 11:14:03;;;;;;;;;4.00;4.00;;;;;13.36;53.17;100358.09;5071592;28;45473;-74
2022/04/06 11:16:43;;;;;;;;;9.00;8.00;;;;;13.41;53.13;100349.31;5065141;27;45511;-74
2022/04/06 11:19:08;;;;;;;;;8.00;8.00;;;;;13.59;52.97;100369.75;5072402;28;45358;-74
2022/04/06 11:21:34;;;;;;;;;9.25;8.00;;;;;13.54;53.11;100338.72;5066817;28;46500;-73
2022/04/06 11:23:59;;;;;;;;;5.00;5.00;;;;;13.74;52.99;100360.06;5071306;28;46947;-74
2022/04/06 11:26:26;;;;;;;;;20.50;17.25;;;;;13.79;52.67;100359.19;5080389;27;45342;-74
2022/04/06 11:29:00;;;;;;;;;20.25;16.25;;;;;13.72;52.86;100322.84;5079177;27;45437;-73
2022/04/06 11:31:26;;;;;;;;;11.50;8.75;;;;;13.96;52.81;100343.31;5066096;28;45319;-75
2022/04/06 11:33:51;;;;;;;;;4.75;4.75;;;;;13.95;52.43;100315.00;5067625;28;46195;-72
2022/04/06 11:36:18;;;;;;;;;8.75;7.25;;;;;14.02;52.78;100316.75;5062564;28;45369;-74
2022/04/06 11:38:51;;;;;;;;;39.25;29.25;;;;;14.10;52.62;100292.88;5071463;28;45315;-73